createdAt,value
2022-09-07T00:02:10.596Z,93.13
2022-09-07T00:04:36.989Z,93.27
2022-09-07T00:07:03.472Z,93.54
2022-09-07T00:09:29.972Z,93.45
2022-09-07T00:11:56.327Z,93.68
2022-09-07T00:14:22.997Z,93.72
2022-09-07T00:16:49.464Z,93.82
2022-09-07T00:19:15.893Z,93.80
2022-09-07T00:21:42.273Z,93.93
2022-09-07T00:24:08.767Z,93.95
2022-09-07T00:26:35.359Z,93.99
2022-09-07T00:29:03.347Z,93.89
2022-09-07T00:31:30.690Z,94.15
2022-09-07T00:34:00.100Z,94.02
2022-09-07T00:36:26.687Z,93.82
2022-09-07T00:38:53.251Z,94.23
2022-09-07T00:41:21.881Z,94.05
2022-09-07T00:43:51.004Z,94.46
2022-09-07T00:46:26.683Z,94.20
2022-09-07T00:49:08.844Z,94.48
2022-09-07T00:51:57.894Z,94.60
2022-09-07T00:54:38.616Z,94.60
2022-09-07T00:57:06.083Z,94.61
2022-09-07T00:59:37.562Z,94.42
2022-09-07T01:02:04.475Z,94.68
2022-09-07T01:04:31.575Z,94.56
2022-09-07T01:06:58.872Z,94.77
2022-09-07T01:09:27.347Z,94.92
2022-09-07T01:11:54.755Z,95.01
2022-09-07T01:14:25.075Z,94.97
2022-09-07T01:17:06.722Z,94.89
2022-09-07T01:20:05.977Z,94.85
2022-09-07T01:22:53.742Z,94.95
2022-09-07T01:25:38.902Z,94.85
2022-09-07T01:28:17.424Z,94.86
2022-09-07T01:31:10.083Z,94.88
2022-09-07T01:33:42.484Z,95.02
2022-09-07T01:36:28.921Z,95.01
2022-09-07T01:39:00.180Z,94.81
2022-09-07T01:41:52.630Z,95.08
2022-09-07T01:44:28.740Z,95.01
2022-09-07T01:46:58.047Z,95.03
2022-09-07T01:49:35.059Z,94.68
2022-09-07T01:52:07.849Z,95.02
2022-09-07T01:54:45.423Z,95.11
2022-09-07T01:57:18.988Z,95.15
2022-09-07T01:59:53.236Z,95.11
2022-09-07T02:02:26.547Z,95.00
2022-09-07T02:04:59.785Z,95.04
2022-09-07T02:07:29.178Z,95.10
2022-09-07T02:10:24.347Z,95.05
2022-09-07T02:13:13.482Z,95.09
2022-09-07T02:16:02.137Z,95.05
2022-09-07T02:18:42.602Z,94.98
2022-09-07T02:21:10.695Z,94.94
2022-09-07T02:23:44.342Z,95.12
2022-09-07T02:26:19.615Z,94.95
2022-09-07T02:28:46.092Z,94.99
2022-09-07T02:31:12.671Z,95.12
2022-09-07T02:33:39.436Z,94.89
2022-09-07T02:36:06.634Z,95.11
2022-09-07T02:38:34.132Z,95.05
2022-09-07T02:41:02.630Z,95.08
2022-09-07T02:43:30.541Z,94.92
2022-09-07T02:46:05.895Z,95.00
2022-09-07T02:48:52.244Z,94.95
2022-09-07T02:51:25.879Z,94.86
2022-09-07T02:54:20.977Z,95.16
2022-09-07T02:57:19.166Z,94.80
2022-09-07T02:59:51.508Z,94.88
2022-09-07T03:02:51.957Z,95.06
2022-09-07T03:05:44.421Z,95.25
2022-09-07T03:08:22.338Z,95.16
2022-09-07T03:10:50.138Z,95.09
2022-09-07T03:13:25.716Z,95.22
2022-09-07T03:15:55.715Z,95.31
2022-09-07T03:18:23.697Z,95.38
2022-09-07T03:20:50.120Z,95.38
2022-09-07T03:23:16.513Z,95.46
2022-09-07T03:25:43.301Z,95.51
2022-09-07T03:28:09.964Z,95.46
2022-09-07T03:30:36.533Z,95.56
2022-09-07T03:33:03.017Z,95.39
2022-09-07T03:35:29.420Z,95.25
2022-09-07T03:37:55.785Z,95.39
2022-09-07T03:40:22.208Z,95.29
2022-09-07T03:42:50.107Z,95.37
2022-09-07T03:45:16.986Z,95.16
2022-09-07T03:47:43.389Z,95.23
2022-09-07T03:50:09.955Z,95.19
2022-09-07T03:52:36.437Z,95.24
2022-09-07T03:55:04.315Z,95.35
2022-09-07T03:57:30.936Z,95.20
2022-09-07T03:59:57.317Z,95.34
2022-09-07T04:02:23.746Z,95.31
2022-09-07T04:04:50.228Z,95.15
2022-09-07T04:07:16.669Z,95.24
2022-09-07T04:09:43.124Z,95.22
2022-09-07T04:12:09.655Z,95.25
2022-09-07T04:14:36.038Z,95.21
2022-09-07T04:17:02.548Z,95.04
2022-09-07T04:19:29.888Z,95.05
2022-09-07T04:21:56.271Z,94.87
2022-09-07T04:24:22.743Z,95.27
2022-09-07T04:26:49.239Z,94.99
2022-09-07T04:29:15.606Z,95.23
2022-09-07T04:31:41.996Z,95.22
2022-09-07T04:34:08.572Z,95.27
2022-09-07T04:36:35.283Z,95.42
2022-09-07T04:39:04.153Z,95.23
2022-09-07T04:41:32.433Z,95.12
2022-09-07T04:44:01.864Z,95.34
2022-09-07T04:46:36.931Z,95.05
2022-09-07T04:49:09.260Z,95.38
2022-09-07T04:51:38.401Z,95.38
2022-09-07T04:54:05.361Z,95.40
2022-09-07T04:56:32.581Z,95.30
2022-09-07T04:59:00.763Z,95.25
2022-09-07T05:01:27.362Z,95.52
2022-09-07T05:03:53.880Z,95.66
2022-09-07T05:06:22.617Z,95.48
2022-09-07T05:08:52.105Z,95.31
2022-09-07T05:11:21.994Z,95.26
2022-09-07T05:13:52.005Z,95.62
2022-09-07T05:16:21.355Z,95.47
2022-09-07T05:19:06.251Z,95.46
2022-09-07T05:21:34.774Z,95.40
2022-09-07T05:24:02.226Z,95.27
2022-09-07T05:26:31.554Z,95.37
2022-09-07T05:31:45.207Z,95.41
2022-09-07T05:36:58.589Z,95.51
2022-09-07T05:39:25.478Z,95.59
2022-09-07T05:41:52.143Z,95.50
2022-09-07T05:47:05.192Z,95.36
2022-09-07T05:49:32.394Z,95.31
2022-09-07T05:51:58.762Z,95.22
2022-09-07T05:54:25.446Z,95.21
2022-09-07T05:56:51.836Z,95.33
2022-09-07T05:59:18.201Z,95.35
2022-09-07T06:01:44.612Z,95.25
2022-09-07T06:04:11.088Z,95.21
2022-09-07T06:06:40.796Z,95.10
2022-09-07T06:09:07.836Z,95.02
2022-09-07T06:11:34.202Z,95.18
2022-09-07T06:14:00.633Z,95.14
2022-09-07T06:16:27.298Z,95.12
2022-09-07T06:18:54.494Z,95.35
2022-09-07T06:21:23.267Z,95.35
2022-09-07T06:23:51.248Z,95.39
2022-09-07T06:26:19.501Z,95.31
2022-09-07T06:28:50.174Z,95.41
2022-09-07T06:31:22.939Z,95.52
2022-09-07T06:33:50.483Z,95.53
2022-09-07T06:36:19.357Z,95.58
2022-09-07T06:38:47.033Z,95.63
2022-09-07T06:44:03.388Z,95.57
2022-09-07T06:49:16.120Z,95.55
2022-09-07T06:51:42.560Z,95.55
2022-09-07T06:56:55.701Z,95.11
2022-09-07T06:59:22.098Z,95.04
2022-09-07T07:01:49.068Z,94.94
2022-09-07T07:04:15.481Z,94.66
2022-09-07T07:06:41.861Z,94.32
2022-09-07T07:09:11.148Z,94.10
2022-09-07T07:11:37.606Z,93.97
2022-09-07T07:14:04.271Z,93.85
2022-09-07T07:16:31.118Z,93.60
2022-09-07T07:18:57.936Z,93.54
2022-09-07T07:21:24.371Z,93.52
2022-09-07T07:23:52.424Z,93.50
2022-09-07T07:26:21.418Z,93.14
2022-09-07T07:29:06.811Z,93.37
2022-09-07T07:31:34.907Z,92.92
2022-09-07T07:34:57.493Z,92.66
2022-09-07T07:37:27.998Z,92.18
2022-09-07T07:42:42.797Z,91.97
2022-09-07T07:47:57.047Z,91.29
2022-09-07T07:50:31.638Z,90.47
2022-09-07T07:55:45.330Z,91.02
2022-09-07T07:58:11.779Z,91.02
2022-09-07T08:00:53.827Z,90.00
2022-09-07T08:03:22.941Z,89.70
2022-09-07T08:05:49.325Z,90.30
2022-09-07T08:08:15.650Z,90.13
2022-09-07T08:10:42.165Z,89.36
2022-09-07T08:13:08.545Z,88.40
2022-09-07T08:15:41.184Z,89.20
2022-09-07T08:18:07.488Z,87.98
2022-09-07T08:20:34.042Z,87.86
2022-09-07T08:23:00.454Z,87.60
2022-09-07T08:25:28.377Z,88.00
2022-09-07T08:27:54.698Z,86.11
2022-09-07T08:30:22.244Z,86.41
2022-09-07T08:32:48.589Z,86.63
2022-09-07T08:35:15.009Z,85.07
2022-09-07T08:37:41.454Z,84.86
2022-09-07T08:40:10.472Z,84.89
2022-09-07T08:42:45.822Z,85.20
2022-09-07T08:45:21.595Z,84.85
2022-09-07T08:47:51.264Z,84.41
2022-09-07T08:50:29.316Z,84.09
2022-09-07T08:53:02.985Z,84.32
2022-09-07T08:55:38.941Z,82.78
2022-09-07T08:58:48.735Z,83.28
2022-09-07T09:01:34.495Z,82.38
2022-09-07T09:04:18.501Z,82.09
2022-09-07T09:07:09.843Z,82.69
2022-09-07T09:10:15.167Z,82.62
2022-09-07T09:13:09.607Z,81.46
2022-09-07T09:16:01.308Z,80.38
2022-09-07T09:18:36.354Z,78.68
2022-09-07T09:21:02.825Z,78.95
2022-09-07T09:23:40.545Z,79.27
2022-09-07T09:26:25.662Z,79.47
2022-09-07T09:28:52.047Z,79.77
2022-09-07T09:31:32.890Z,77.39
2022-09-07T09:34:05.103Z,76.17
2022-09-07T09:36:34.307Z,78.06
2022-09-07T09:39:01.121Z,75.83
2022-09-07T09:41:37.279Z,75.78
2022-09-07T09:44:04.021Z,73.83
2022-09-07T09:46:37.697Z,75.40
2022-09-07T09:49:26.384Z,73.41
2022-09-07T09:54:44.344Z,73.08
2022-09-07T09:57:17.947Z,73.29
2022-09-07T10:00:03.939Z,72.63
2022-09-07T10:05:24.448Z,73.48
2022-09-07T10:07:53.010Z,72.77
2022-09-07T10:10:19.446Z,71.12
2022-09-07T10:12:46.413Z,72.15
2022-09-07T10:15:28.184Z,68.55
2022-09-07T10:17:54.593Z,69.27
2022-09-07T10:20:37.952Z,68.35
2022-09-07T10:23:06.414Z,66.46
2022-09-07T10:25:34.819Z,67.46
2022-09-07T10:28:13.983Z,68.07
2022-09-07T10:31:14.534Z,66.21
2022-09-07T10:34:28.954Z,66.85
2022-09-07T10:37:03.890Z,65.57
2022-09-07T10:39:51.784Z,64.99
2022-09-07T10:42:35.540Z,64.32
2022-09-07T10:45:23.859Z,65.49
2022-09-07T10:48:02.398Z,65.01
2022-09-07T10:50:39.562Z,64.90
2022-09-07T10:53:40.780Z,64.54
2022-09-07T10:56:19.641Z,63.42
2022-09-07T10:59:07.093Z,61.40
2022-09-07T11:02:18.503Z,60.38
2022-09-07T11:04:45.329Z,60.66
2022-09-07T11:07:53.208Z,60.06
2022-09-07T11:10:48.967Z,57.73
2022-09-07T11:13:24.012Z,58.28
2022-09-07T11:15:54.527Z,56.52
2022-09-07T11:18:31.783Z,55.38
2022-09-07T11:21:01.031Z,55.65
2022-09-07T11:23:41.364Z,56.80
2022-09-07T11:26:35.158Z,55.71
2022-09-07T11:29:30.680Z,56.24
2022-09-07T11:32:09.649Z,56.99
2022-09-07T11:34:48.698Z,56.56
2022-09-07T11:37:39.947Z,57.10
2022-09-07T11:40:35.137Z,57.45
2022-09-07T11:43:11.566Z,56.99
2022-09-07T11:45:53.629Z,57.49
2022-09-07T11:48:31.905Z,56.39
2022-09-07T11:51:04.366Z,56.81
2022-09-07T11:53:41.706Z,57.30
2022-09-07T11:56:17.989Z,56.92
2022-09-07T11:58:54.911Z,56.11
2022-09-07T12:01:45.601Z,55.50
2022-09-07T12:04:37.381Z,56.17
2022-09-07T12:07:21.032Z,57.29
2022-09-07T12:09:59.542Z,57.61
2022-09-07T12:12:35.267Z,58.47
2022-09-07T12:15:27.320Z,55.83
2022-09-07T12:18:20.924Z,56.05
2022-09-07T12:20:48.566Z,53.50
2022-09-07T12:23:14.794Z,53.00
2022-09-07T12:25:42.902Z,51.90
2022-09-07T12:28:24.496Z,51.72
2022-09-07T12:31:06.613Z,50.81
2022-09-07T12:33:36.807Z,48.79
2022-09-07T12:36:26.099Z,51.25
2022-09-07T12:39:25.122Z,51.40
2022-09-07T12:45:29.941Z,49.60
2022-09-07T12:47:58.990Z,49.12
2022-09-07T12:50:29.715Z,49.51
2022-09-07T12:53:19.712Z,47.85
2022-09-07T12:59:22.222Z,47.34
2022-09-07T13:02:37.368Z,48.61
2022-09-07T13:05:15.561Z,48.74
2022-09-07T13:08:01.513Z,48.61
2022-09-07T13:10:36.203Z,49.29
2022-09-07T13:13:05.886Z,49.42
2022-09-07T13:15:42.443Z,48.69
2022-09-07T13:18:12.480Z,47.84
2022-09-07T13:20:41.476Z,47.04
2022-09-07T13:23:22.011Z,46.36
2022-09-07T13:25:51.530Z,46.67
2022-09-07T13:28:31.803Z,46.34
2022-09-07T13:31:18.997Z,47.06
2022-09-07T13:33:48.171Z,47.83
2022-09-07T13:36:32.488Z,47.08
2022-09-07T13:38:59.328Z,47.11
2022-09-07T13:41:34.876Z,48.13
2022-09-07T13:44:03.747Z,48.93
2022-09-07T13:46:56.438Z,51.00
2022-09-07T13:49:35.083Z,48.36
2022-09-07T13:52:08.818Z,47.78
2022-09-07T13:54:43.086Z,46.06
2022-09-07T13:57:25.953Z,42.99
2022-09-07T13:59:52.504Z,44.82
2022-09-07T14:02:29.350Z,45.84
2022-09-07T14:04:58.630Z,44.16
2022-09-07T14:07:27.839Z,44.92
2022-09-07T14:10:04.797Z,46.82
2022-09-07T14:12:31.150Z,45.50
2022-09-07T14:15:09.603Z,45.89
2022-09-07T14:17:36.208Z,42.53
2022-09-07T14:20:03.390Z,44.62
2022-09-07T14:22:34.053Z,42.69
2022-09-07T14:25:05.915Z,42.28
2022-09-07T14:27:36.515Z,42.12
2022-09-07T14:30:32.991Z,44.07
2022-09-07T14:33:01.607Z,45.33
2022-09-07T14:35:32.338Z,45.10
2022-09-07T14:38:07.308Z,47.06
2022-09-07T14:40:34.479Z,46.26
2022-09-07T14:43:00.768Z,44.83
2022-09-07T14:45:32.945Z,44.00
2022-09-07T14:47:59.340Z,43.92
2022-09-07T14:50:34.726Z,43.61
2022-09-07T14:56:01.887Z,43.10
2022-09-07T14:58:32.430Z,42.39
2022-09-07T15:04:02.061Z,41.56
2022-09-07T15:09:35.195Z,41.73
2022-09-07T15:12:18.936Z,42.20
2022-09-07T15:14:45.503Z,41.69
2022-09-07T15:17:47.480Z,43.91
2022-09-07T15:20:40.874Z,42.90
2022-09-07T15:23:13.508Z,42.55
2022-09-07T15:25:43.300Z,42.89
2022-09-07T15:29:08.119Z,41.48
2022-09-07T15:33:57.524Z,42.54
2022-09-07T15:36:23.845Z,41.91
2022-09-07T15:39:05.575Z,41.81
2022-09-07T15:41:32.852Z,41.48
2022-09-07T15:43:59.432Z,42.94
2022-09-07T15:46:26.285Z,42.85
2022-09-07T15:48:55.094Z,42.30
2022-09-07T15:54:14.219Z,41.78
2022-09-07T15:56:42.384Z,42.88
2022-09-07T15:59:10.013Z,42.39
2022-09-07T16:01:52.568Z,42.96
2022-09-07T16:04:19.647Z,43.40
2022-09-07T16:06:48.176Z,43.20
2022-09-07T16:09:16.142Z,43.24
2022-09-07T16:11:42.464Z,44.02
2022-09-07T16:14:11.623Z,44.75
2022-09-07T16:19:24.705Z,44.93
2022-09-07T16:21:51.011Z,46.35
2022-09-07T16:24:17.479Z,45.87
2022-09-07T16:26:43.801Z,46.49
2022-09-07T16:29:10.252Z,46.40
2022-09-07T16:31:37.122Z,46.66
2022-09-07T16:34:04.243Z,47.69
2022-09-07T16:36:30.811Z,46.95
2022-09-07T16:38:59.433Z,46.77
2022-09-07T16:41:31.586Z,46.47
2022-09-07T16:43:59.046Z,46.96
2022-09-07T16:46:28.173Z,48.29
2022-09-07T16:48:55.068Z,47.88
2022-09-07T16:51:22.780Z,47.64
2022-09-07T16:53:50.918Z,48.77
2022-09-07T16:56:19.727Z,48.84
2022-09-07T16:58:51.992Z,48.53
2022-09-07T17:01:21.190Z,49.99
2022-09-07T17:03:51.349Z,48.03
2022-09-07T17:06:20.116Z,49.50
2022-09-07T17:08:47.123Z,50.01
2022-09-07T17:11:19.383Z,50.23
2022-09-07T17:13:46.610Z,51.64
2022-09-07T17:16:19.680Z,52.33
2022-09-07T17:21:36.093Z,53.96
2022-09-07T17:24:04.590Z,54.58
2022-09-07T17:26:32.736Z,55.28
2022-09-07T17:29:00.974Z,55.12
2022-09-07T17:34:19.529Z,55.34
2022-09-07T17:36:46.071Z,55.39
2022-09-07T17:39:14.227Z,55.81
2022-09-07T17:41:41.642Z,55.76
2022-09-07T17:44:07.963Z,56.36
2022-09-07T17:46:34.440Z,57.42
2022-09-07T17:49:02.154Z,58.01
2022-09-07T17:51:31.735Z,58.60
2022-09-07T17:54:01.769Z,58.71
2022-09-07T17:56:28.493Z,58.88
2022-09-07T18:00:10.475Z,59.20
2022-09-07T18:01:41.580Z,59.20
2022-09-07T18:04:09.835Z,59.40
2022-09-07T18:06:36.813Z,59.52
2022-09-07T18:09:04.476Z,60.09
2022-09-07T18:11:48.112Z,59.97
2022-09-07T18:14:15.529Z,60.52
2022-09-07T18:16:44.259Z,60.86
2022-09-07T18:19:11.907Z,61.15
2022-09-07T18:21:40.983Z,61.13
2022-09-07T18:24:13.578Z,60.98
2022-09-07T18:26:40.918Z,61.78
2022-09-07T18:29:25.943Z,62.02
2022-09-07T18:31:54.790Z,62.52
2022-09-07T18:34:21.289Z,62.93
2022-09-07T18:36:47.712Z,63.39
2022-09-07T18:39:14.277Z,63.93
2022-09-07T18:41:40.863Z,63.76
2022-09-07T18:45:27.271Z,64.21
2022-09-07T18:46:53.864Z,64.48
2022-09-07T18:49:20.382Z,64.92
2022-09-07T18:54:34.041Z,65.70
2022-09-07T18:57:00.411Z,65.98
2022-09-07T18:59:26.796Z,65.71
2022-09-07T19:01:53.945Z,66.25
2022-09-07T19:04:22.294Z,66.18
2022-09-07T19:06:48.821Z,66.74
2022-09-07T19:09:15.170Z,67.38
2022-09-07T19:11:42.206Z,67.70
2022-09-07T19:14:08.698Z,67.85
2022-09-07T19:16:36.272Z,68.20
2022-09-07T19:19:05.561Z,68.04
2022-09-07T19:21:34.617Z,68.50
2022-09-07T19:24:14.725Z,68.50
2022-09-07T19:26:45.949Z,68.71
2022-09-07T19:29:15.323Z,68.94
2022-09-07T19:32:04.052Z,69.20
2022-09-07T19:34:36.021Z,70.00
2022-09-07T19:37:03.709Z,69.77
2022-09-07T19:39:30.401Z,69.68
2022-09-07T19:41:57.119Z,69.57
2022-09-07T19:44:25.564Z,70.09
2022-09-07T19:46:52.136Z,70.46
2022-09-07T19:49:18.483Z,70.78
2022-09-07T19:51:45.495Z,70.14
2022-09-07T19:54:12.652Z,70.50
2022-09-07T19:56:40.748Z,70.73
2022-09-07T19:59:07.494Z,71.09
2022-09-07T20:01:35.054Z,71.27
2022-09-07T20:04:04.282Z,71.41
2022-09-07T20:06:35.163Z,71.43
2022-09-07T20:09:02.954Z,71.52
2022-09-07T20:11:29.505Z,71.52
2022-09-07T20:13:57.162Z,71.86
2022-09-07T20:16:24.759Z,71.77
2022-09-07T20:18:51.744Z,72.23
2022-09-07T20:21:27.678Z,72.34
2022-09-07T20:23:54.033Z,72.26
2022-09-07T20:26:21.546Z,72.48
2022-09-07T20:29:10.633Z,73.29
2022-09-07T20:31:37.371Z,73.39
2022-09-07T20:34:03.960Z,73.30
2022-09-07T20:36:30.285Z,73.67
2022-09-07T20:38:57.257Z,74.01
2022-09-07T20:41:28.577Z,74.42
2022-09-07T20:43:56.145Z,74.56
2022-09-07T20:46:22.744Z,74.88
2022-09-07T20:48:49.099Z,75.11
2022-09-07T20:51:20.810Z,74.88
2022-09-07T20:53:48.626Z,75.41
2022-09-07T20:56:17.564Z,74.99
2022-09-07T20:58:45.785Z,75.29
2022-09-07T21:01:14.837Z,75.28
2022-09-07T21:03:49.075Z,75.51
2022-09-07T21:06:16.151Z,75.72
2022-09-07T21:08:44.414Z,75.81
2022-09-07T21:11:16.953Z,76.10
2022-09-07T21:13:44.120Z,76.61
2022-09-07T21:16:13.664Z,76.59
2022-09-07T21:18:41.077Z,76.35
2022-09-07T21:21:23.411Z,76.01
2022-09-07T21:24:00.746Z,75.89
2022-09-07T21:26:28.107Z,76.07
2022-09-07T21:29:02.486Z,76.38
2022-09-07T21:31:31.327Z,76.31
2022-09-07T21:34:00.515Z,76.11
2022-09-07T21:36:27.849Z,76.25
2022-09-07T21:38:54.914Z,76.31
2022-09-07T21:41:23.108Z,76.45
2022-09-07T21:43:53.494Z,76.57
2022-09-07T21:46:19.955Z,76.73
2022-09-07T21:48:46.573Z,76.61
2022-09-07T21:51:14.009Z,76.76
2022-09-07T21:53:40.860Z,76.98
2022-09-07T21:56:11.067Z,77.65
2022-09-07T21:58:37.562Z,77.62
2022-09-07T22:01:17.015Z,77.91
2022-09-07T22:03:45.435Z,77.60
2022-09-07T22:06:12.323Z,77.49
2022-09-07T22:08:40.285Z,77.56
2022-09-07T22:11:10.565Z,77.33
2022-09-07T22:13:37.420Z,77.64
2022-09-07T22:16:05.004Z,77.62
2022-09-07T22:18:31.749Z,77.59
2022-09-07T22:21:03.329Z,77.72
2022-09-07T22:23:34.523Z,78.32
2022-09-07T22:26:01.012Z,78.04
2022-09-07T22:28:29.433Z,78.20
2022-09-07T22:30:56.932Z,78.28
2022-09-07T22:33:23.390Z,78.43
2022-09-07T22:35:50.528Z,78.70
2022-09-07T22:38:16.846Z,78.77
2022-09-07T22:40:43.177Z,78.73
2022-09-07T22:43:09.502Z,78.65
2022-09-07T22:45:35.846Z,78.57
2022-09-07T22:48:02.350Z,78.81
2022-09-07T22:50:28.678Z,78.61
2022-09-07T22:52:55.000Z,78.42
2022-09-07T22:55:21.361Z,78.45
2022-09-07T22:57:47.737Z,78.87
2022-09-07T23:00:14.481Z,78.86
2022-09-07T23:02:40.813Z,79.11
2022-09-07T23:05:07.839Z,79.33
2022-09-07T23:07:34.209Z,79.37
2022-09-07T23:10:00.793Z,79.46
2022-09-07T23:12:27.123Z,79.38
2022-09-07T23:14:53.455Z,79.58
2022-09-07T23:17:19.826Z,79.94
2022-09-07T23:19:47.010Z,79.89
2022-09-07T23:22:14.143Z,80.08
2022-09-07T23:24:41.534Z,79.98
2022-09-07T23:27:07.862Z,80.00
2022-09-07T23:29:34.187Z,79.88
2022-09-07T23:32:00.533Z,80.05
2022-09-07T23:34:26.872Z,80.12
2022-09-07T23:36:53.242Z,80.18
2022-09-07T23:39:19.655Z,80.01
2022-09-07T23:41:45.986Z,80.26
2022-09-07T23:44:12.366Z,80.28
2022-09-07T23:46:38.748Z,80.18
2022-09-07T23:49:05.258Z,80.14
2022-09-07T23:51:31.593Z,80.10
2022-09-07T23:53:57.934Z,80.11
2022-09-07T23:56:24.450Z,80.21
2022-09-07T23:58:51.059Z,80.20
